Central Sierra Snow Lab Weather observations

Data are for 10 minute period ending at time listed.
 Day   Time    Incoming  Reflected   Ave.   Ave.    Ave.    Vector  Max.    Ave.    Total    Snow   
  of    of      Solar     Solar      Air    Rel.    Wind    Wind    Wind   Baro.   Precip.   Depth  
Year   Day     Radiation Radiation   Temp.  Humid.  Speed   Dir.    Gust   Press.                   
2016   (PST)    Kw/m2     Kw/m2       F       %      mph     deg.    mph     mb.     in.      in.   
----------------------------------------------------------------------------------------------------
 208    2:30    0.000     999.000     46.7     52     3.7      26     4.4   796.80    9.61   -3.00  
 208    2:40    0.000     999.000     46.5     52     2.1      45     4.0   796.80    9.61   -2.90  
 208    2:50    0.000     999.000     46.6     51     2.6      34     4.2   796.80    9.61   -3.00  
 208    3:00    0.000     999.000     46.5     51     3.9      29     4.4   796.80    9.61   -3.00  
 208    3:10    0.000     999.000     46.4     51     3.7      28     4.4   796.90    9.61   -2.90  
 208    3:20    0.000     999.000     46.3     50     4.0      29     6.0   796.90    9.61   -2.90  
 208    3:30    0.000     999.000     46.2     49     3.0      34     5.3   796.90    9.61   -2.80  
 208    3:40    0.000     999.000     46.4     47     4.2      28     7.1   796.90    9.61   -3.00  
 208    3:50    0.000     999.000     46.0     48     2.8      37     5.1   796.90    9.61   -2.90  
 208    4:00    0.000     999.000     45.5     48     2.2      46     4.7   796.90    9.62   -2.80  
 208    4:10    0.000     999.000     45.6     48     3.1      30     4.2   796.90    9.61   -2.80  
 208    4:20    0.000     999.000     45.5     48     3.1      30     5.0   796.80    9.61   -2.80  
 208    4:30    0.000     999.000     45.2     50     3.6      30     4.9   796.80    9.61   -2.90  
 208    4:40    0.000     999.000     45.1     51     4.0      29     5.9   796.80    9.61   -2.90  
 208    4:50    0.001     999.000     45.1     52     2.4      35     3.7   796.90    9.61   -2.80  
 208    5:00    0.002     999.000     45.2     51     3.4      26     4.4   796.90    9.61   -2.80  
 208    5:10    0.004     999.000     45.1     51     3.5      32     4.9   797.00    9.61   -2.80  
 208    5:20    0.006     999.000     45.2     50     2.6      36     5.0   796.90    9.62   -2.90  
 208    5:30    0.008     999.000     45.7     50     3.1      32     5.2   797.00    9.62   -2.90  
 208    5:40    0.010     999.000     45.7     51     3.0      35     5.0   797.00    9.61   -2.80  
 208    5:50    0.012     999.000     45.6     52     2.4      31     4.7   797.00    9.62   -2.90  
 208    6:00    0.014     999.000     45.6     56     1.4      50     2.5   797.00    9.62   -2.80  
 208    6:10    0.016     999.000     45.8     58     1.6      42     3.0   797.00    9.60   71.10  
 208    6:20    0.021     999.000     46.7     60     2.2      30     3.8   797.00    9.61   23.60  
 208    6:30    0.043     999.000     47.4     61     2.0      40     4.0   797.00    9.61   -3.00  
 208    6:40    0.054     999.000     48.4     62     2.5      38     4.2   797.00    9.61   -2.90  
 208    6:50    0.070     999.000     49.9     62     1.9      31     3.2   797.00    9.61   -2.90  
 208    7:00    0.113     999.000     52.1     58     1.4      50     2.2   797.20    9.62   -3.00  
 208    7:10    0.186     999.000     55.4     53     1.4      39     2.5   797.20    9.61   -3.10  
 208    7:20    0.279     999.000     57.5     50     1.0      55     1.8   797.20    9.61   -3.20  
 208    7:30    0.386     999.000     59.3     48     1.4      44     2.2   797.20    9.61   -3.20  
 208    7:40    0.425     999.000     61.0     47     1.3      40     2.0   797.20    9.61   -3.50  
 208    7:50    0.463     999.000     61.8     46     0.2      35     1.1   797.20    9.61   -4.00  
 208    8:00    0.496     999.000     63.6     44     0.0       0     0.0   797.20    9.61   -4.40  
 208    8:10    0.527     999.000     66.2     39     0.0     174     0.4   797.20    9.60   -4.50  
 208    8:20    0.555     999.000     68.7     33     0.3     310     1.5   797.20    9.61   -4.50  
 208    8:30    0.584     999.000     70.0     29     0.5     260     2.6   797.10    9.60   -5.00  
 208    8:40    0.610     999.000     71.7     29     0.3     266     1.9   797.00    9.60   -5.10  
 208    8:50    0.637     999.000     72.5     22     0.9     227     3.2   797.00    9.60   -4.70  
 208    9:00    0.665     999.000     73.8     18     1.5     152     4.3   797.00    9.60   -4.70  
 208    9:10    0.692     999.000     74.4     16     1.6     213     4.1   797.10    9.60   -4.60  
 208    9:20    0.719     999.000     75.1     15     1.3     235     3.9   797.10    9.60   -4.80  
 208    9:30    0.735     999.000     74.8     15     2.2     236     6.7   797.10    9.60   -4.40  
 208    9:40    0.760     999.000     75.4     16     1.6     214     4.9   797.10    9.61   -4.30  
 208    9:50    0.779     999.000     76.1     14     2.6     204     6.5   797.10    9.60   -4.40  
 208   10:00    0.797     999.000     76.4     14     2.7     212     6.6   797.10    9.60   -4.30  
 208   10:10    0.807     999.000     76.5     14     2.4     233     5.0   797.10    9.61   -4.40  
 208   10:20    0.821     999.000     77.2     15     1.8     240     6.8   797.10    9.60   -4.50  
 208   10:30    0.853     999.000     77.7     14     2.4     237     6.6   797.10    9.60   -4.40  
 208   10:40    0.867     999.000     78.1     13     2.1     215     8.2   797.10    9.60   -4.40  
 208   10:50    0.873     999.000     77.6     12     2.3     217     4.5   797.00    9.60   -4.50  
 208   11:00    0.878     999.000     78.2     14     2.3     228     7.9   797.00    9.60   -4.20  
 208   11:10    0.832     999.000     78.4     12     2.5     204     5.2   797.00    9.60   -4.30  
 208   11:20    0.877     999.000     78.1     12     2.3     214     6.7   796.90    9.60   -4.30  
 208   11:30    0.890     999.000     78.3     10     2.9     238     8.3   796.90    9.60   -4.30  
 208   11:40    0.889     999.000     79.4     12     2.3     250     5.6   796.90    9.60   -4.40  
 208   11:50    0.859     999.000     79.3     13     2.0     197     4.1   796.90    9.60   -4.20  
 208   12:00    0.875     999.000     79.2     12     2.5     243     5.6   796.80    9.60   -4.30  
 208   12:10    0.917     999.000     79.5     12     2.8     186     6.2   796.80    9.60   -4.10  
 208   12:20    0.938     999.000     80.0     13     3.3     186     6.4   796.70    9.60   -4.10  
 208   12:30    0.941     999.000     80.7     13     4.1     180     8.4   796.70    9.60   -4.10  
 208   12:40    0.935     999.000     80.2     12     3.6     183    10.5   796.60    9.60   -3.90  
 208   12:50    0.936     999.000     81.3     12     2.8     205     6.5   796.60    9.60   -4.10  
 208   13:00    0.913     999.000     81.9     13     2.7     201     8.3   796.50    9.60   -4.00  
 208   13:10    0.905     999.000     82.3     13     3.1     201     9.1   796.50    9.60   -3.80  
 208   13:20    0.912     999.000     82.4     13     2.6     235     7.6   796.40    9.60   -3.90  
 208   13:30    0.900     999.000     82.6     13     3.0     255     6.3   796.40    9.60   -4.10  
 208   13:40    0.888     999.000     82.4     14     2.1     223     6.1   796.30    9.60   -3.90  
 208   13:50    0.872     999.000     83.4     14     2.9     209     7.5   796.30    9.60   -3.90  
 208   14:00    0.859     999.000     82.7     14     3.2     226     9.4   796.30    9.60   -3.90  
 208   14:10    0.848     999.000     82.8     14     3.3     240     8.5   796.20    9.59   -4.00  
 208   14:20    0.828     999.000     81.9     15     3.7     252    11.2   796.20    9.60   -3.90  
 208   14:30    0.805     999.000     80.6     14     4.5     280    11.0   796.20    9.60   -3.80  
 208   14:40    0.800     999.000     81.6     14     4.0     262    14.3   796.20    9.60   -4.00  
 208   14:50    0.769     999.000     81.0     14     4.8     269    13.2   796.20    9.59   -3.90  
 208   15:00    0.747     999.000     80.9     14     4.3     274    10.9   796.10    9.60   -3.80  
 208   15:10    0.713     999.000     82.1     14     3.0     222     6.9   796.10    9.60   -3.80  
 208   15:20    0.698     999.000     82.2     14     3.3     253    11.0   796.00    9.59   -3.80  
 208   15:30    0.664     999.000     82.4     14     3.3     217     9.9   796.00    9.60   -3.70  
 208   15:40    0.641     999.000     81.5     12     3.4     267     8.9   796.10    9.60   -3.80  
 208   15:50    0.607     999.000     81.2     12     3.7     264     9.4   796.00    9.59   -3.70  
 208   16:00    0.577     999.000     81.1     12     4.0     258     9.9   796.00    9.60   -3.80  
 208   16:10    0.555     999.000     80.8     11     3.5     240     8.4   796.00    9.60   -3.80  
 208   16:20    0.521     999.000     81.6     12     2.7     223     7.4   796.00    9.60   -3.90  
 208   16:30    0.395     999.000     81.8     12     3.0     252     7.4   796.00    9.60   -3.90  
 208   16:40    0.256     999.000     81.1     12     2.5     244     6.1   796.10    9.59   -3.90  
 208   16:50    0.158     999.000     81.7     12     2.4     248     6.4   796.10    9.59   -4.00  
 208   17:00    0.283     999.000     81.4     14     2.2     226     6.3   796.10    9.59   -4.00  
 208   17:10    0.362     999.000     80.8     13     2.2     237     5.9   796.10    9.60   -3.90  
 208   17:20    0.319     999.000     80.8     14     1.9     242     6.5   796.10    9.60   -4.00  
 208   17:30    0.269     999.000     79.9     14     2.6     251     6.1   796.10    9.59   -4.00  
 208   17:40    0.267     999.000     79.5     14     2.3     233     6.7   796.10    9.59   -4.00  
 208   17:50    0.127     999.000     79.8     14     1.7     242     5.4   796.10    9.60   -4.10  
 208   18:00    0.076     999.000     79.3     15     1.6     245     5.3   796.10    9.59   -4.10  
 208   18:10    0.120     999.000     78.6     16     0.8     263     3.4   796.20    9.59   -4.10  
 208   18:20    0.119     999.000     77.3     19     0.1      29     1.4   796.20    9.59   -4.30  
 208   18:30    0.047     999.000     76.2     19     0.4     278     4.1   796.20    9.59   -4.30  
 208   18:40    0.024     999.000     75.1     22     0.4      42     2.2   796.20    9.59   -3.90  
 208   18:50    0.017     999.000     71.7     28     2.1      26     3.2   796.20    9.59   -3.50  
 208   19:00    0.013     999.000     68.6     30     2.9      20     3.9   796.30    9.59   -3.40  
 208   19:10    0.009     999.000     66.2     34     3.0      21     3.8   796.40    9.59   -3.30  
 208   19:20    0.005     999.000     64.7     38     2.9      23     3.8   796.40    9.59   -3.30  
 208   19:30    0.002     999.000     63.3     41     3.1      22     3.9   796.40    9.60   -3.20  
 208   19:40    0.000     999.000     62.2     43     3.3      25     3.9   796.50    9.60   -3.20  
 208   19:50    0.000     999.000     61.3     44     3.2      26     4.3   796.50    9.60   -3.20  
 208   20:00    0.000     999.000     60.5     45     2.4      24     3.4   796.50    9.59   -3.20  
 208   20:10    0.000     999.000     59.6     46     2.6      29     4.2   796.70    9.60   -3.20  
 208   20:20    0.000     999.000     59.0     47     2.7      33     4.3   796.80    9.60   -3.00  
 208   20:30    0.000     999.000     58.4     48     2.4      29     3.6   796.90    9.60   -3.10  
 208   20:40    0.000     999.000     57.8     49     3.2      27     4.1   797.00    9.60   -3.00  
 208   20:50    0.000     999.000     57.2     50     3.5      30     4.6   797.10    9.60   -3.10  
 208   21:00    0.000     999.000     56.6     50     2.1      36     3.9   797.10    9.60   -3.10  
 208   21:10    0.000     999.000     56.0     50     2.6      36     4.0   797.10    9.60   -3.00  
 208   21:20    0.000     999.000     55.6     51     1.9      36     3.3   797.20    9.60   -3.00  
 208   21:30    0.000     999.000     55.1     51     2.3      35     3.6   797.20    9.60   -3.00  
 208   21:40    0.000     999.000     54.7     51     2.0      36     3.0   797.20    9.60   -3.00  
 208   21:50    0.000     999.000     54.2     51     2.6      34     4.6   797.20    9.60   -3.00  
 208   22:00    0.000     999.000     53.8     51     2.1      39     3.6   797.20    9.60   -3.00  
 208   22:10    0.000     999.000     53.7     52     1.9      40     3.3   797.20    9.60   -3.00  
 208   22:20    0.000     999.000     53.5     51     2.0      37     4.1   797.20    9.60   -2.90  
 208   22:30    0.000     999.000     53.3     50     1.9      43     3.8   797.20    9.60   -2.90  
 208   22:40    0.000     999.000     53.1     49     2.1      42     3.8   797.10    9.60   -2.90  
 208   22:50    0.000     999.000     52.9     47     1.9      40     3.3   797.10    9.60   -3.00  
 208   23:00    0.000     999.000     52.6     46     2.5      38     4.0   797.10    9.60   -3.00  
 208   23:10    0.000     999.000     52.2     44     2.8      37     4.4   797.10    9.61   -3.00  
 208   23:20    0.000     999.000     52.1     44     1.5      47     1.9   797.10    9.60   -2.90  
 208   23:30    0.000     999.000     52.0     41     1.7      38     2.4   797.00    9.60   -3.00  
 208   23:40    0.000     999.000     51.7     41     2.1      39     3.2   797.00    9.60   -3.00  
 208   23:50    0.000     999.000     51.4     41     1.6      45     3.2   797.00    9.60   -2.90  
 209    0:00    0.000     999.000     51.2     40     1.9      39     2.6   797.00    9.60   -2.90  
 209    0:10    0.000     999.000     50.9     39     2.6      34     4.0   797.00    9.61   -3.00  
 209    0:20    0.000     999.000     50.7     38     2.3      36     3.2   796.90    9.61   -2.90  
 209    0:30    0.000     999.000     50.4     37     1.9      42     2.8   796.90    9.61   -2.90  
 209    0:40    0.000     999.000     50.4     35     2.1      34     2.8   796.90    9.60   -2.90  
 209    0:50    0.000     999.000     50.3     34     2.0      36     3.6   796.90    9.61   -2.90  
 209    1:00    0.000     999.000     50.3     34     2.4      34     4.0   796.90    9.60   -3.00  
 209    1:10    0.000     999.000     50.2     32     2.8      34     3.9   796.90    9.61   -3.00  
 209    1:20    0.000     999.000     50.2     32     3.5      32     4.5   796.90    9.61   -3.00  
 209    1:30    0.000     999.000     50.1     32     3.4      31     4.5   796.80    9.61   -3.00  
 209    1:40    0.000     999.000     49.9     32     2.9      33     4.0   796.80    9.61   -2.90  
 209    1:50    0.000     999.000     49.9     32     2.9      32     4.3   796.80    9.61   -2.90  
 209    2:00    0.000     999.000     49.7     32     2.1      34     3.6   796.80    9.60   -2.90  
 209    2:10    0.000     999.000     49.5     32     2.5      36     4.0   796.70    9.60   -2.90  
 209    2:20    0.000     999.000     49.4     32     3.1      34     4.7   796.80    9.61   -2.90  

Return to Central Sierra Snow Lab graphs page.


Western Regional Climate Center,wrcc@dri.edu